Time;durP1;ratioP1;P1;durP2;ratioP2;P2;SDS_P1;SDS_P2;PMS_P1;PMS_P2;Temp;Humidity;BMP_temperature;BMP_pressure;BME280_temperature;BME280_humidity;BME280_pressure;Samples;Min_cycle;Max_cycle;Signal;HPM_P1;HPM_P2
2022/07/14 00:01:38;;;;;;;1.67;1.58;;;;;;;25.09;48.38;101306.59;5051720;28;20045;-73
2022/07/14 00:04:06;;;;;;;4.88;2.00;;;;;;;25.01;48.56;101303.97;5051452;28;20041;-73
2022/07/14 00:06:34;;;;;;;1.90;1.80;;;;;;;24.92;48.21;101302.19;5046761;28;20056;-73
2022/07/14 00:09:03;;;;;;;1.90;1.80;;;;;;;24.73;48.97;101304.88;5051467;28;20053;-73
2022/07/14 00:11:31;;;;;;;3.42;2.10;;;;;;;24.70;49.05;101301.59;5051801;28;20049;-73
2022/07/14 00:13:59;;;;;;;2.33;1.92;;;;;;;24.85;48.47;101301.19;5051455;28;20044;-73
2022/07/14 00:16:27;;;;;;;3.50;2.08;;;;;;;24.72;48.59;101298.47;5051796;28;20376;-73
2022/07/14 00:18:55;;;;;;;2.17;1.98;;;;;;;24.60;48.95;101299.38;5051446;28;20049;-73
2022/07/14 00:21:23;;;;;;;2.10;2.00;;;;;;;24.56;48.64;101296.47;5051727;28;20060;-73
2022/07/14 00:23:51;;;;;;;3.22;2.03;;;;;;;24.62;48.81;101299.81;5045718;28;20049;-74
2022/07/14 00:26:19;;;;;;;1.98;1.67;;;;;;;24.55;49.10;101299.63;5051226;28;20045;-73
2022/07/14 00:28:47;;;;;;;1.63;1.45;;;;;;;24.49;49.44;101303.84;5048598;28;20045;-73
2022/07/14 00:31:15;;;;;;;1.60;1.50;;;;;;;24.53;49.22;101296.34;5051710;28;20067;-73
2022/07/14 00:33:43;;;;;;;1.83;1.73;;;;;;;24.53;49.55;101301.94;5052369;28;20403;-73
2022/07/14 00:36:11;;;;;;;1.65;1.55;;;;;;;24.43;49.54;101298.53;5051600;28;20502;-73
2022/07/14 00:38:39;;;;;;;1.98;1.83;;;;;;;24.34;50.17;101306.25;5052626;28;20057;-73
2022/07/14 00:41:10;;;;;;;2.45;1.98;;;;;;;24.20;50.79;101314.25;5034453;28;20064;-73
2022/07/14 00:43:39;;;;;;;2.50;1.70;;;;;;;24.12;51.38;101305.66;5051487;28;20056;-73
2022/07/14 00:46:07;;;;;;;2.47;2.28;;;;;;;24.12;52.15;101311.25;5049886;28;20049;-73
2022/07/14 00:48:36;;;;;;;2.97;2.28;;;;;;;24.16;51.43;101306.56;5051585;28;20502;-74
2022/07/14 00:51:04;;;;;;;2.55;2.35;;;;;;;24.13;51.64;101307.28;5049817;28;20052;-73
2022/07/14 00:53:33;;;;;;;1.95;1.73;;;;;;;24.34;50.94;101306.25;5051393;28;20079;-74
2022/07/14 00:56:01;;;;;;;2.35;2.10;;;;;;;24.28;51.22;101305.72;5051731;28;20037;-73
2022/07/14 00:58:30;;;;;;;1.90;1.80;;;;;;;24.16;51.59;101300.19;5050629;28;20053;-73
2022/07/14 01:00:58;;;;;;;2.47;2.25;;;;;;;24.07;52.36;101305.91;5051210;28;20053;-73
2022/07/14 01:03:26;;;;;;;2.30;2.10;;;;;;;24.09;52.45;101300.78;5049100;28;20045;-73
2022/07/14 01:05:54;;;;;;;2.38;2.17;;;;;;;24.09;52.95;101306.38;5051369;28;20052;-74
2022/07/14 01:08:22;;;;;;;2.70;2.35;;;;;;;23.98;53.46;101296.81;5054978;28;20060;-73
2022/07/14 01:10:50;;;;;;;2.72;2.08;;;;;;;23.80;54.24;101299.91;5037307;28;20456;-73
2022/07/14 01:13:18;;;;;;;2.20;2.10;;;;;;;23.73;53.81;101289.34;5054823;28;20045;-73
2022/07/14 01:15:46;;;;;;;2.30;2.10;;;;;;;23.77;53.92;101297.84;5053323;28;20048;-73
2022/07/14 01:18:14;;;;;;;4.57;2.25;;;;;;;23.80;54.00;101294.31;5054534;28;20061;-73
2022/07/14 01:20:42;;;;;;;2.53;1.88;;;;;;;23.68;54.58;101297.97;5053326;28;20045;-73
2022/07/14 01:23:11;;;;;;;6.30;2.20;;;;;;;23.59;54.48;101291.69;5053700;28;20056;-73
2022/07/14 01:25:38;;;;;;;2.30;2.10;;;;;;;23.57;54.38;101296.84;5055042;28;20108;-74
2022/07/14 01:28:06;;;;;;;2.67;2.47;;;;;;;23.70;54.16;101300.44;5070345;28;20045;-73
2022/07/14 01:30:34;;;;;;;3.92;2.63;;;;;;;23.57;54.31;101292.06;5053390;28;20617;-73
2022/07/14 01:33:17;;;;;;;2.38;2.17;;;;;;;23.52;54.39;101300.69;5055962;28;20041;-73
2022/07/14 01:35:57;;;;;;;2.35;2.15;;;;;;;23.51;54.73;101296.25;5064259;28;20049;-73
2022/07/14 01:38:25;;;;;;;3.42;2.05;;;;;;;23.65;53.67;101297.88;5069268;28;20068;-73
2022/07/14 01:40:53;;;;;;;2.35;2.22;;;;;;;23.60;53.78;101301.69;5052645;28;20075;-73
2022/07/14 01:43:21;;;;;;;2.17;1.98;;;;;;;23.68;53.31;101285.97;5053298;28;20037;-74
2022/07/14 01:45:49;;;;;;;1.90;1.80;;;;;;;23.55;54.05;101288.00;5053069;28;20056;-73
2022/07/14 01:48:17;;;;;;;2.63;1.70;;;;;;;23.64;52.90;101296.25;5052492;28;20056;-74
2022/07/14 01:50:45;;;;;;;2.22;1.80;;;;;;;23.56;53.36;101286.84;5054737;28;20057;-73
2022/07/14 01:53:14;;;;;;;3.95;2.15;;;;;;;23.52;52.77;101286.72;5053133;28;20052;-73
2022/07/14 01:55:43;;;;;;;2.83;1.70;;;;;;;23.60;52.56;101280.19;5054038;28;20044;-73
2022/07/14 01:58:12;;;;;;;2.33;1.95;;;;;;;23.60;52.98;101284.94;5053648;28;20041;-73
2022/07/14 02:00:40;;;;;;;1.67;1.58;;;;;;;23.38;53.64;101275.09;5054061;28;20044;-73
2022/07/14 02:03:08;;;;;;;3.67;1.63;;;;;;;23.44;53.05;101273.69;5052253;28;20043;-73
2022/07/14 02:05:36;;;;;;;2.08;1.90;;;;;;;23.49;52.48;101274.28;5044343;28;20045;-73
2022/07/14 02:08:05;;;;;;;3.05;1.88;;;;;;;23.50;52.75;101275.06;5052163;28;20518;-73
2022/07/14 02:13:23;;;;;;;3.25;1.90;;;;;;;23.28;53.47;101257.66;5058610;28;20396;-73
2022/07/14 02:15:51;;;;;;;1.92;1.67;;;;;;;23.27;53.27;101267.16;5068970;28;20044;-73
2022/07/14 02:18:19;;;;;;;2.53;1.63;;;;;;;23.34;53.31;101263.81;5053461;28;20049;-73
2022/07/14 02:20:48;;;;;;;2.10;1.90;;;;;;;23.34;53.78;101256.28;5052474;28;20048;-73
2022/07/14 02:23:16;;;;;;;1.95;1.65;;;;;;;23.42;53.43;101267.66;5053223;28;20052;-73
2022/07/14 02:25:44;;;;;;;1.80;1.70;;;;;;;23.37;53.18;101260.34;5052523;28;20041;-73
2022/07/14 02:28:12;;;;;;;2.65;1.40;;;;;;;23.33;53.96;101262.19;5052010;28;20041;-73
2022/07/14 02:30:40;;;;;;;1.90;1.80;;;;;;;23.35;53.29;101260.69;5053510;28;20055;-74
2022/07/14 02:33:09;;;;;;;3.50;1.75;;;;;;;23.39;52.81;101257.16;5053533;28;20502;-73
2022/07/14 02:35:37;;;;;;;2.08;1.85;;;;;;;23.34;53.69;101258.22;5053428;28;20120;-74
2022/07/14 02:38:05;;;;;;;2.20;2.00;;;;;;;23.28;54.24;101252.06;5052178;28;20060;-73
2022/07/14 02:40:33;;;;;;;2.13;1.58;;;;;;;23.38;53.05;101256.38;5051608;28;20052;-73
2022/07/14 02:43:02;;;;;;;2.05;1.80;;;;;;;23.49;52.64;101254.72;5052987;28;20053;-73
2022/07/14 02:45:29;;;;;;;4.60;1.88;;;;;;;23.37;53.91;101260.34;5043657;28;20067;-73
2022/07/14 02:47:58;;;;;;;1.83;1.70;;;;;;;23.47;52.58;101253.44;5035332;28;20055;-74
2022/07/14 02:50:26;;;;;;;1.80;1.70;;;;;;;23.57;52.07;101247.38;5053088;28;20056;-74
2022/07/14 02:52:54;;;;;;;1.33;1.30;;;;;;;23.45;52.01;101244.59;5052340;28;20060;-73
2022/07/14 02:55:30;;;;;;;1.70;1.60;;;;;;;23.37;53.05;101249.16;5052100;28;20048;-73
2022/07/14 02:57:58;;;;;;;2.72;1.67;;;;;;;23.37;52.76;101248.34;5053241;28;20052;-73
2022/07/14 03:00:27;;;;;;;2.42;1.52;;;;;;;23.46;52.62;101246.25;5051398;28;20395;-73
2022/07/14 03:02:55;;;;;;;2.15;1.70;;;;;;;23.45;52.12;101239.00;5051460;28;20075;-73
2022/07/14 03:05:24;;;;;;;1.60;1.50;;;;;;;23.60;51.76;101246.66;5051455;28;20049;-73
2022/07/14 03:07:52;;;;;;;3.03;1.70;;;;;;;23.66;51.47;101240.81;5051842;28;20041;-73
2022/07/14 03:10:20;;;;;;;5.13;2.13;;;;;;;23.74;51.29;101239.84;5051058;28;20057;-73
2022/07/14 03:12:48;;;;;;;1.70;1.55;;;;;;;23.59;51.86;101233.88;5052937;28;20044;-73
2022/07/14 03:15:15;;;;;;;2.63;1.60;;;;;;;23.46;52.49;101221.09;5051514;28;20045;-73
2022/07/14 03:17:43;;;;;;;1.65;1.55;;;;;;;23.53;51.97;101228.88;5051195;28;20045;-73
2022/07/14 03:20:12;;;;;;;9.00;2.00;;;;;;;23.45;52.65;101228.66;5050922;28;20052;-73
2022/07/14 03:22:41;;;;;;;4.00;1.75;;;;;;;23.41;52.42;101226.94;5034230;28;20076;-73
2022/07/14 03:25:16;;;;;;;1.52;1.42;;;;;;;23.49;51.78;101231.56;5050697;28;20048;-73
2022/07/14 03:27:50;;;;;;;1.60;1.50;;;;;;;23.69;51.27;101237.31;5037268;28;20040;-74
2022/07/14 03:30:20;;;;;;;2.08;1.92;;;;;;;23.62;51.20;101226.75;5051138;28;20049;-74
2022/07/14 03:32:48;;;;;;;1.90;1.70;;;;;;;23.68;52.05;101230.91;5051182;28;20048;-74
2022/07/14 03:35:16;;;;;;;2.65;1.92;;;;;;;23.62;52.09;101235.94;5052401;28;20057;-73
2022/07/14 03:37:45;;;;;;;1.67;1.58;;;;;;;23.73;51.32;101238.22;5050480;28;20047;-73
2022/07/14 03:40:14;;;;;;;2.60;1.77;;;;;;;23.57;52.10;101233.41;5040710;28;20041;-73
2022/07/14 03:42:44;;;;;;;3.65;1.77;;;;;;;23.52;52.02;101225.28;5063675;28;20052;-73
2022/07/14 03:45:18;;;;;;;5.75;2.17;;;;;;;23.51;52.22;101225.63;5049047;28;20415;-74
2022/07/14 03:47:46;;;;;;;2.42;1.88;;;;;;;23.52;52.01;101221.66;5034267;28;20538;-74
2022/07/14 03:50:14;;;;;;;3.05;1.88;;;;;;;23.59;52.15;101221.88;5050871;28;20049;-74
2022/07/14 03:52:42;;;;;;;1.83;1.65;;;;;;;23.59;52.12;101219.91;5050968;28;20395;-74
2022/07/14 03:55:10;;;;;;;2.78;1.92;;;;;;;23.73;51.99;101224.25;5050314;28;20373;-74
2022/07/14 03:57:38;;;;;;;1.77;1.67;;;;;;;23.65;52.79;101228.81;5052024;28;20033;-74
2022/07/14 04:00:07;;;;;;;5.88;1.80;;;;;;;23.70;51.69;101223.00;5049098;28;20049;-74
2022/07/14 04:02:43;;;;;;;1.50;1.40;;;;;;;23.66;52.05;101221.28;5050057;28;20071;-74
2022/07/14 04:05:22;;;;;;;2.03;1.60;;;;;;;23.55;52.41;101229.34;5034026;28;20052;-74
2022/07/14 04:07:52;;;;;;;2.17;1.60;;;;;;;23.70;51.60;101228.56;5050502;28;20045;-74
2022/07/14 04:10:21;;;;;;;2.22;1.70;;;;;;;23.71;51.66;101219.03;5050278;28;20049;-74
2022/07/14 04:12:49;;;;;;;1.83;1.73;;;;;;;23.66;52.50;101232.44;5050401;28;20601;-74
2022/07/14 04:15:17;;;;;;;4.70;1.50;;;;;;;23.65;52.19;101230.81;5048897;28;20052;-74
2022/07/14 04:17:45;;;;;;;5.97;1.73;;;;;;;23.71;52.43;101230.19;5050361;28;20041;-74
2022/07/14 04:20:13;;;;;;;4.80;1.67;;;;;;;23.72;52.81;101231.84;5049643;28;20041;-74
2022/07/14 04:22:43;;;;;;;2.72;1.63;;;;;;;23.75;53.11;101233.09;5050612;28;20044;-74
2022/07/14 04:25:14;;;;;;;1.77;1.67;;;;;;;23.72;53.05;101233.81;5049419;28;20040;-74
2022/07/14 04:27:44;;;;;;;1.50;1.40;;;;;;;23.70;53.59;101228.56;5049532;28;20052;-73
2022/07/14 04:30:14;;;;;;;5.57;1.80;;;;;;;23.78;53.29;101228.78;5049404;28;20045;-74
2022/07/14 04:32:42;;;;;;;2.75;1.70;;;;;;;23.77;53.39;101236.38;5049944;28;20056;-73
2022/07/14 04:35:13;;;;;;;3.67;1.83;;;;;;;23.97;53.04;101230.91;5050135;28;20048;-74
2022/07/14 04:37:42;;;;;;;1.80;1.70;;;;;;;24.04;53.31;101219.94;5049500;28;20041;-73
2022/07/14 04:40:20;;;;;;;3.05;1.73;;;;;;;24.15;52.46;101225.84;5051177;28;20484;-74
2022/07/14 04:42:49;;;;;;;2.22;2.00;;;;;;;24.25;51.99;101214.13;5054187;28;20072;-83
2022/07/14 04:45:18;;;;;;;4.53;1.73;;;;;;;24.41;51.33;101216.13;5038410;28;20053;-82
2022/07/14 04:47:49;;;;;;;2.08;1.75;;;;;;;24.59;51.34;101216.59;5036777;28;20057;-82
2022/07/14 04:53:05;;;;;;;4.75;2.20;;;;;;;24.91;50.45;101213.78;5048231;28;20052;-82
2022/07/14 04:55:43;;;;;;;3.00;1.52;;;;;;;25.26;49.32;101219.78;5019489;28;20045;-83
2022/07/14 04:58:25;;;;;;;3.67;1.52;;;;;;;25.15;48.98;101220.34;5036211;28;20041;-82
2022/07/14 05:00:58;;;;;;;2.17;1.83;;;;;;;25.15;49.14;101219.50;5033695;28;20052;-81
2022/07/14 05:03:32;;;;;;;3.33;1.80;;;;;;;25.28;48.49;101234.22;5029615;28;20068;-81
2022/07/14 05:06:00;;;;;;;3.25;1.77;;;;;;;25.41;48.25;101232.91;5053569;28;20051;-81
2022/07/14 05:08:30;;;;;;;1.70;1.55;;;;;;;25.44;48.34;101234.97;5052917;28;20048;-81
2022/07/14 05:10:59;;;;;;;1.70;1.45;;;;;;;25.47;48.12;101231.44;5051134;28;20507;-80
2022/07/14 05:13:28;;;;;;;2.67;1.67;;;;;;;25.43;48.72;101236.16;5053786;28;20053;-81
2022/07/14 05:15:57;;;;;;;3.72;1.60;;;;;;;25.38;48.19;101232.81;5053447;28;20384;-82
2022/07/14 05:18:26;;;;;;;2.72;1.80;;;;;;;25.49;47.71;101245.91;5053239;28;20049;-82
2022/07/14 05:20:54;;;;;;;1.80;1.40;;;;;;;25.34;48.35;101246.75;5054048;28;20036;-81
2022/07/14 05:23:29;;;;;;;3.03;1.75;;;;;;;25.25;48.80;101240.53;5053673;28;20496;-81
2022/07/14 05:25:57;;;;;;;6.22;2.08;;;;;;;25.17;49.27;101225.59;5054028;28;20052;-82
2022/07/14 05:28:26;;;;;;;6.07;2.00;;;;;;;25.22;49.72;101239.31;5052573;28;20033;-82
2022/07/14 05:30:57;;;;;;;2.75;2.40;;;;;;;25.26;50.61;101230.97;5052238;28;20041;-84
2022/07/14 05:33:46;;;;;;;4.43;1.92;;;;;;;25.42;49.95;101237.31;5039611;28;20052;-83
2022/07/14 05:36:14;;;;;;;5.25;2.50;;;;;;;25.61;49.35;101232.97;5054264;28;20045;-83
2022/07/14 05:38:43;;;;;;;7.28;3.38;;;;;;;25.79;48.89;101235.31;5052729;28;20033;-83
2022/07/14 05:41:14;;;;;;;4.70;3.03;;;;;;;25.94;48.27;101236.44;5053836;28;20048;-83
2022/07/14 05:43:42;;;;;;;7.22;2.88;;;;;;;25.84;48.63;101235.81;5053157;28;20045;-83
2022/07/14 05:46:11;;;;;;;6.30;2.42;;;;;;;25.85;48.46;101237.44;5053062;28;20037;-83
2022/07/14 05:48:40;;;;;;;3.35;2.40;;;;;;;25.88;47.83;101230.28;5051767;28;20044;-83
2022/07/14 05:51:16;;;;;;;7.28;3.08;;;;;;;26.10;47.38;101233.53;5051160;28;20049;-83
2022/07/14 05:53:48;;;;;;;4.10;2.78;;;;;;;26.06;47.48;101232.63;5050609;28;20067;-83
2022/07/14 05:56:17;;;;;;;5.15;2.50;;;;;;;26.20;47.72;101244.09;5051629;28;20045;-83
2022/07/14 05:58:47;;;;;;;4.43;3.03;;;;;;;26.13;47.44;101229.97;5051567;28;20740;-83
2022/07/14 06:01:18;;;;;;;2.95;2.47;;;;;;;26.23;46.61;101245.38;5051185;28;20048;-83
2022/07/14 06:03:56;;;;;;;3.83;2.42;;;;;;;26.25;45.91;101243.84;5051388;28;20044;-83
2022/07/14 06:06:26;;;;;;;2.53;2.03;;;;;;;26.38;45.90;101249.25;5051321;28;20045;-83
2022/07/14 06:08:55;;;;;;;4.90;1.95;;;;;;;26.47;45.68;101251.81;5052488;28;20049;-83
2022/07/14 06:11:23;;;;;;;2.28;1.80;;;;;;;26.42;44.27;101244.53;5051230;28;20045;-83
2022/07/14 06:13:55;;;;;;;3.03;1.60;;;;;;;26.53;43.97;101255.94;5052197;28;20053;-83
2022/07/14 06:16:24;;;;;;;5.43;1.80;;;;;;;26.63;44.82;101248.91;5051096;28;20067;-83
2022/07/14 06:18:52;;;;;;;1.77;1.60;;;;;;;26.80;44.10;101256.81;5050687;28;20060;-83
2022/07/14 06:21:20;;;;;;;2.83;1.65;;;;;;;26.89;42.79;101261.34;5051074;28;20037;-83
2022/07/14 06:23:49;;;;;;;2.38;1.70;;;;;;;26.86;42.67;101250.88;5050900;28;20045;-83
2022/07/14 06:26:19;;;;;;;2.08;1.70;;;;;;;26.95;43.42;101252.28;5049816;28;20131;-83
2022/07/14 06:28:46;;;;;;;3.03;1.92;;;;;;;27.06;44.50;101254.41;5050845;28;20392;-83
2022/07/14 06:31:15;;;;;;;6.15;1.70;;;;;;;27.07;44.34;101251.25;5052379;28;20045;-83
2022/07/14 06:33:43;;;;;;;4.13;2.33;;;;;;;27.18;44.48;101256.22;5052182;28;20050;-82
2022/07/14 06:36:33;;;;;;;4.22;2.17;;;;;;;27.34;45.05;101248.44;5042415;28;20049;-82
2022/07/14 06:39:03;;;;;;;4.80;2.38;;;;;;;27.33;45.36;101246.00;5051786;28;20041;-82
2022/07/14 06:41:32;;;;;;;4.38;2.28;;;;;;;27.45;45.29;101250.56;5051867;28;20049;-82
2022/07/14 06:44:00;;;;;;;3.53;2.50;;;;;;;27.57;45.32;101255.13;5051768;28;20076;-82
2022/07/14 06:46:38;;;;;;;4.60;1.88;;;;;;;27.73;44.66;101264.22;5051909;28;20040;-82
2022/07/14 06:49:07;;;;;;;4.53;2.38;;;;;;;27.81;44.61;101253.06;5051764;28;20047;-82
2022/07/14 06:51:35;;;;;;;2.33;2.10;;;;;;;27.83;44.69;101262.72;5051546;28;20037;-82
2022/07/14 06:54:03;;;;;;;6.13;3.05;;;;;;;27.88;45.20;101259.56;5051783;28;20060;-82
2022/07/14 06:56:31;;;;;;;2.97;2.08;;;;;;;27.87;45.92;101263.56;5052607;28;20052;-82
2022/07/14 06:58:59;;;;;;;3.70;2.65;;;;;;;27.95;45.69;101258.03;5052919;28;20045;-82
2022/07/14 07:01:27;;;;;;;3.28;2.42;;;;;;;27.89;46.09;101261.19;5052918;28;20049;-83
2022/07/14 07:03:55;;;;;;;2.38;2.13;;;;;;;27.86;45.87;101261.94;5051780;28;20388;-83
2022/07/14 07:09:15;;;;;;;6.20;2.65;;;;;;;27.98;45.50;101257.25;5039390;28;20052;-82
2022/07/14 07:11:44;;;;;;;6.13;2.00;;;;;;;28.16;44.51;101263.88;5052587;28;20045;-82
2022/07/14 07:14:12;;;;;;;6.60;2.58;;;;;;;28.12;44.53;101263.06;5052619;28;20048;-82
2022/07/14 07:16:40;;;;;;;2.65;1.80;;;;;;;28.12;42.72;101254.63;5052355;28;20037;-82
2022/07/14 07:19:09;;;;;;;2.60;1.85;;;;;;;28.01;42.33;101251.66;5052258;28;20116;-82
2022/07/14 07:21:37;;;;;;;4.68;1.80;;;;;;;28.17;42.65;101248.66;5051336;28;20040;-82
2022/07/14 07:24:05;;;;;;;5.60;2.20;;;;;;;28.16;42.15;101254.66;5052177;28;20060;-82
2022/07/14 07:26:38;;;;;;;1.95;1.83;;;;;;;28.20;41.45;101251.88;5051237;28;20049;-83
2022/07/14 07:29:06;;;;;;;3.65;1.98;;;;;;;28.24;41.39;101258.38;5052249;28;20056;-84
2022/07/14 07:31:35;;;;;;;3.95;1.83;;;;;;;28.15;41.27;101256.66;5052295;28;20093;-83
2022/07/14 07:34:03;;;;;;;3.63;2.25;;;;;;;28.16;41.73;101251.84;5052182;28;20041;-83
2022/07/14 07:36:31;;;;;;;2.60;1.60;;;;;;;28.17;41.55;101239.38;5052061;28;20056;-83
2022/07/14 07:38:59;;;;;;;2.17;1.88;;;;;;;28.19;41.32;101250.25;5052155;28;20513;-83
2022/07/14 07:41:27;;;;;;;2.17;1.98;;;;;;;28.34;41.06;101246.41;5052168;28;20048;-83
2022/07/14 07:43:58;;;;;;;4.93;1.88;;;;;;;28.30;40.47;101237.94;5052052;28;20040;-83
2022/07/14 07:46:26;;;;;;;2.33;2.08;;;;;;;28.46;40.65;101250.13;5052155;28;20049;-83
2022/07/14 07:48:54;;;;;;;4.20;2.25;;;;;;;28.34;39.75;101245.63;5052159;28;20044;-84
2022/07/14 07:51:23;;;;;;;2.20;1.98;;;;;;;28.20;40.61;101237.81;5050466;28;20041;-84
2022/07/14 07:53:51;;;;;;;2.45;2.25;;;;;;;28.36;40.39;101244.03;5051951;28;20040;-84
2022/07/14 07:56:19;;;;;;;3.83;1.65;;;;;;;28.54;40.17;101249.00;5051781;28;20041;-83
2022/07/14 07:58:47;;;;;;;2.90;2.03;;;;;;;28.70;40.11;101246.72;5051648;28;20049;-84
2022/07/14 08:01:14;;;;;;;2.13;1.80;;;;;;;28.76;39.44;101240.72;5050451;28;20056;-84
2022/07/14 08:03:43;;;;;;;5.00;1.80;;;;;;;28.87;39.09;101243.69;5051528;28;20198;-83
2022/07/14 08:06:11;;;;;;;2.22;1.90;;;;;;;29.03;38.77;101243.38;5051756;28;20041;-83
2022/07/14 08:08:59;;;;;;;2.17;1.98;;;;;;;28.89;38.95;101225.19;5051515;28;20044;-84
2022/07/14 08:11:28;;;;;;;1.90;1.73;;;;;;;29.20;38.63;101228.59;5051726;28;20516;-83
2022/07/14 08:13:56;;;;;;;2.55;2.08;;;;;;;29.21;38.84;101218.09;5051365;28;20041;-83
2022/07/14 08:16:24;;;;;;;3.10;1.95;;;;;;;29.35;39.31;101225.84;5051600;28;20041;-83
2022/07/14 08:18:52;;;;;;;4.68;2.15;;;;;;;29.50;38.68;101213.47;5051249;28;20045;-83
2022/07/14 08:21:21;;;;;;;3.35;2.15;;;;;;;29.82;38.69;101211.97;5051554;28;20049;-83
2022/07/14 08:23:50;;;;;;;3.92;1.73;;;;;;;29.75;38.58;101221.19;5051408;28;20479;-83
2022/07/14 08:26:18;;;;;;;4.10;2.35;;;;;;;29.75;38.52;101224.03;5050403;28;20124;-83
2022/07/14 08:28:45;;;;;;;2.97;2.30;;;;;;;29.54;38.46;101215.47;5051619;28;20492;-83
2022/07/14 08:31:13;;;;;;;2.35;2.20;;;;;;;29.76;37.76;101219.19;5047605;28;20045;-83
2022/07/14 08:33:42;;;;;;;3.40;2.35;;;;;;;29.84;37.95;101223.66;5051493;28;20040;-81
2022/07/14 08:36:10;;;;;;;10.13;2.35;;;;;;;30.02;38.26;101211.59;5051051;28;20052;-83
2022/07/14 08:38:38;;;;;;;21.58;3.60;;;;;;;29.92;37.59;101216.00;5051521;28;20037;-81
2022/07/14 08:41:08;;;;;;;13.10;2.80;;;;;;;29.98;38.75;101225.69;5051317;28;20041;-82
2022/07/14 08:43:38;;;;;;;5.07;2.38;;;;;;;29.90;38.54;101212.78;5051408;28;20048;-82
2022/07/14 08:46:06;;;;;;;5.97;2.22;;;;;;;30.01;39.00;101216.41;5051319;28;20563;-84
2022/07/14 08:48:34;;;;;;;6.13;2.17;;;;;;;30.32;37.51;101221.75;5051242;28;20045;-82
2022/07/14 08:51:02;;;;;;;6.07;2.38;;;;;;;30.44;37.65;101223.34;5051225;28;20365;-82
2022/07/14 08:53:31;;;;;;;3.75;2.10;;;;;;;30.62;37.08;101219.72;5051185;28;20511;-82
2022/07/14 08:55:59;;;;;;;3.78;1.90;;;;;;;30.86;35.89;101220.94;5051224;28;20052;-82
2022/07/14 08:58:27;;;;;;;2.72;1.88;;;;;;;30.79;34.37;101220.97;5051146;28;20053;-83
2022/07/14 09:00:55;;;;;;;2.97;2.08;;;;;;;30.73;35.09;101216.94;5051503;28;20369;-82
2022/07/14 09:03:24;;;;;;;2.67;1.73;;;;;;;30.76;33.60;101211.28;5051171;28;20053;-82
2022/07/14 09:06:52;;;;;;;4.78;2.05;;;;;;;30.90;33.73;101215.28;5051215;28;20045;-82
2022/07/14 09:09:22;;;;;;;2.00;1.65;;;;;;;30.67;32.82;101217.31;5039366;28;20060;-82
2022/07/14 09:12:00;;;;;;;5.15;1.63;;;;;;;30.66;33.37;101209.22;5050971;28;20514;-82
2022/07/14 09:17:20;;;;;;;2.42;1.63;;;;;;;30.63;32.76;101195.94;5050881;28;20049;-82
2022/07/14 09:20:07;;;;;;;2.08;1.70;;;;;;;30.80;31.91;101211.28;5050936;28;20068;-83
2022/07/14 09:22:38;;;;;;;2.70;1.73;;;;;;;30.88;31.96;101212.84;5049610;28;20048;-83
2022/07/14 09:25:12;;;;;;;1.30;1.20;;;;;;;31.02;32.10;101199.94;5050987;28;20049;-82
2022/07/14 09:27:40;;;;;;;1.48;1.38;;;;;;;31.02;31.56;101199.94;5053864;28;20045;-82
2022/07/14 09:30:12;;;;;;;3.45;1.63;;;;;;;31.02;31.85;101195.06;5054574;28;20041;-81
2022/07/14 09:32:52;;;;;;;1.20;1.10;;;;;;;31.13;31.07;101205.56;5054501;28;20045;-83
2022/07/14 09:35:26;;;;;;;2.80;1.58;;;;;;;31.20;31.04;101195.03;5054476;28;20060;-83
2022/07/14 09:37:55;;;;;;;;;;;;;;;31.44;30.94;101203.03;5053302;28;20450;-82
2022/07/14 09:40:26;;;;;;;2.20;1.45;;;;;;;31.48;31.49;101192.53;5054264;28;19932;-83
2022/07/14 09:43:04;;;;;;;3.30;1.50;;;;;;;31.58;30.04;101191.69;5068615;28;20047;-83
2022/07/14 09:45:37;;;;;;;2.00;1.35;;;;;;;31.57;30.41;101184.38;5054193;28;20057;-82
2022/07/14 09:48:08;;;;;;;1.00;1.00;;;;;;;31.50;30.03;101179.59;5054223;28;20063;-83
2022/07/14 09:50:45;;;;;;;1.02;1.02;;;;;;;31.69;29.83;101185.13;5054122;28;20053;-83
2022/07/14 09:53:16;;;;;;;2.22;1.52;;;;;;;31.86;29.29;101186.28;5054104;28;20407;-83
2022/07/14 09:55:58;;;;;;;1.58;1.42;;;;;;;31.88;30.29;101187.50;5053991;28;20041;-83
2022/07/14 09:58:41;;;;;;;1.83;1.20;;;;;;;31.91;28.86;101180.19;5054094;28;20404;-83
2022/07/14 10:01:14;;;;;;;4.97;1.63;;;;;;;32.00;29.06;101176.88;5054547;28;20063;-83
2022/07/14 10:03:46;;;;;;;3.67;1.85;;;;;;;32.02;30.02;101178.06;5053881;28;20041;-83
2022/07/14 10:06:18;;;;;;;2.40;1.40;;;;;;;32.23;29.57;101184.00;5053992;28;20049;-84
2022/07/14 10:09:06;;;;;;;2.35;1.90;;;;;;;32.08;29.61;101171.97;5053845;28;20045;-85
2022/07/14 10:11:34;;;;;;;3.17;1.90;;;;;;;32.43;30.28;101176.56;5053847;28;20052;-85
2022/07/14 10:14:02;;;;;;;2.85;1.30;;;;;;;32.41;29.86;101167.69;5053527;28;20036;-82
2022/07/14 10:16:33;;;;;;;1.95;1.85;;;;;;;32.48;30.10;101171.66;5053581;28;20078;-82
2022/07/14 10:19:02;;;;;;;1.50;1.40;;;;;;;32.66;29.76;101158.16;5052466;28;20045;-82
2022/07/14 10:21:40;;;;;;;1.40;1.27;;;;;;;32.82;29.02;101162.44;5052494;28;20052;-85
2022/07/14 10:24:09;;;;;;;2.80;1.80;;;;;;;32.80;28.50;101157.19;5053005;28;20048;-85
2022/07/14 10:26:38;;;;;;;1.90;1.65;;;;;;;32.82;28.87;101151.09;5051722;28;20052;-81
2022/07/14 10:29:07;;;;;;;4.45;1.50;;;;;;;32.84;28.35;101157.16;5053005;28;20048;-81
2022/07/14 10:32:01;;;;;;;1.40;1.30;;;;;;;32.85;28.81;101144.59;5051412;28;20056;-82
2022/07/14 10:34:38;;;;;;;2.17;1.33;;;;;;;32.66;28.25;101149.66;5053349;28;20037;-82
2022/07/14 10:37:23;;;;;;;1.20;1.10;;;;;;;32.74;27.33;101136.19;5052825;28;20044;-82
2022/07/14 10:40:22;;;;;;;1.42;1.30;;;;;;;32.96;27.32;101136.81;5048792;28;20079;-81
2022/07/14 10:43:10;;;;;;;1.35;1.13;;;;;;;32.91;27.18;101137.22;5050147;28;20056;-82
2022/07/14 10:45:50;;;;;;;1.15;1.08;;;;;;;33.04;27.78;101131.03;5051586;28;20120;-82
2022/07/14 10:48:28;;;;;;;2.83;1.27;;;;;;;32.93;26.42;101137.59;5049619;28;20048;-84
2022/07/14 10:51:15;;;;;;;3.28;1.38;;;;;;;33.14;27.30;101123.63;5051196;28;20048;-83
2022/07/14 10:53:59;;;;;;;3.10;1.33;;;;;;;33.18;27.21;101139.34;5051483;28;20052;-83
2022/07/14 10:56:48;;;;;;;1.35;1.25;;;;;;;33.33;27.39;101136.34;5051090;28;20399;-83
2022/07/14 10:59:25;;;;;;;1.90;1.52;;;;;;;33.42;27.54;101133.78;5051394;28;20041;-83
2022/07/14 11:02:14;;;;;;;1.02;1.00;;;;;;;33.40;27.67;101126.91;5048788;28;20044;-82
2022/07/14 11:05:08;;;;;;;1.20;1.10;;;;;;;33.48;27.85;101126.38;5051189;28;20048;-84
2022/07/14 11:07:40;;;;;;;2.38;1.30;;;;;;;33.68;26.95;101127.78;5049200;28;20404;-84
2022/07/14 11:10:32;;;;;;;0.85;0.85;;;;;;;33.88;27.27;101125.03;5051055;28;20048;-83
2022/07/14 11:13:00;;;;;;;1.83;1.33;;;;;;;33.59;27.06;101119.78;5036124;28;20049;-86
2022/07/14 11:15:52;;;;;;;1.70;1.23;;;;;;;33.58;27.37;101112.53;5051337;28;20041;-84
2022/07/14 11:18:29;;;;;;;1.30;1.20;;;;;;;33.71;27.18;101116.38;5051593;28;20470;-85
2022/07/14 11:21:18;;;;;;;0.98;0.98;;;;;;;33.72;27.11;101112.28;5051488;28;20041;-83
2022/07/14 11:23:46;;;;;;;1.33;1.23;;;;;;;34.06;27.10;101115.44;5052112;28;20396;-83
2022/07/14 11:26:38;;;;;;;1.40;1.30;;;;;;;34.10;27.15;101105.63;5051680;28;20053;-83
2022/07/14 11:29:14;;;;;;;1.38;1.27;;;;;;;34.12;26.66;101096.69;5051915;28;20052;-83
2022/07/14 11:31:48;;;;;;;2.17;1.23;;;;;;;34.30;27.33;101107.69;5049551;28;20067;-83
2022/07/14 11:37:08;;;;;;;1.30;1.30;;;;;;;34.49;27.05;101108.19;5050443;28;19932;-83
2022/07/14 11:39:57;;;;;;;1.45;1.35;;;;;;;34.28;27.03;101091.13;5048005;28;20060;-83
2022/07/14 11:42:26;;;;;;;1.40;1.40;;;;;;;34.56;26.93;101094.63;5032395;28;20056;-83
2022/07/14 11:44:56;;;;;;;1.90;1.60;;;;;;;34.69;27.11;101088.31;5047833;28;20068;-82
2022/07/14 11:47:29;;;;;;;1.50;1.40;;;;;;;34.88;26.19;101083.88;5049606;28;20060;-83
2022/07/14 11:50:04;;;;;;;1.63;1.53;;;;;;;34.90;27.26;101081.44;5051196;28;20480;-84
2022/07/14 11:52:41;;;;;;;1.50;1.40;;;;;;;35.06;26.63;101082.69;5051872;28;20053;-83
2022/07/14 11:55:15;;;;;;;2.17;1.30;;;;;;;35.05;26.54;101087.59;5051512;28;20059;-83
2022/07/14 11:57:52;;;;;;;1.95;1.40;;;;;;;34.93;26.25;101076.88;5051126;28;20053;-83